Time;durP1;ratioP1;P1;durP2;ratioP2;P2;SDS_P1;SDS_P2;PMS_P1;PMS_P2;Temp;Humidity;BMP_temperature;BMP_pressure;BME280_temperature;BME280_humidity;BME280_pressure;Samples;Min_cycle;Max_cycle;Signal;HPM_P1;HPM_P2
2023/02/12 00:01:34;;;;;;;;;11.50;10.25;;;;;9.95;70.16;103354.72;4991469;28;45553;-78
2023/02/12 00:04:00;;;;;;;;;14.00;10.50;;;;;9.86;69.97;103334.19;4993078;28;45950;-77
2023/02/12 00:06:26;;;;;;;;;9.50;8.00;;;;;9.97;69.92;103352.97;4992518;28;45261;-77
2023/02/12 00:08:53;;;;;;;;;11.25;9.25;;;;;9.98;70.28;103346.75;4994309;28;46265;-77
2023/02/12 00:11:28;;;;;;;;;12.25;11.25;;;;;9.87;69.38;103319.94;5010459;22;45363;-71
2023/02/12 00:13:55;;;;;;;;;12.25;12.00;;;;;9.96;69.78;103330.72;5014017;28;45429;-71
2023/02/12 00:16:23;;;;;;;;;16.50;13.50;;;;;9.87;69.55;103305.72;4998798;28;45659;-71
2023/02/12 00:18:52;;;;;;;;;16.25;14.75;;;;;9.74;69.72;103283.31;5000134;28;46643;-71
2023/02/12 00:21:18;;;;;;;;;13.00;12.25;;;;;9.85;70.38;103304.81;5003709;28;45649;-71
2023/02/12 00:23:44;;;;;;;;;16.75;15.25;;;;;9.90;69.98;103311.97;5006712;28;45336;-71
2023/02/12 00:26:15;;;;;;;;;18.50;15.75;;;;;10.09;70.34;103331.78;5020980;28;45372;-71
2023/02/12 00:28:41;;;;;;;;;17.00;15.25;;;;;9.89;69.96;103303.94;5007485;28;47673;-71
2023/02/12 00:31:06;;;;;;;;;17.25;14.00;;;;;10.16;70.50;103340.75;5007748;28;45324;-71
2023/02/12 00:33:32;;;;;;;;;22.00;20.50;;;;;10.07;70.25;103325.50;5020047;28;45446;-71
2023/02/12 00:35:57;;;;;;;;;20.00;19.00;;;;;10.16;69.88;103328.28;5010637;28;45433;-71
2023/02/12 00:38:23;;;;;;;;;23.50;18.00;;;;;10.16;70.00;103325.63;5019749;28;47640;-71
2023/02/12 00:40:49;;;;;;;;;21.00;17.25;;;;;10.10;69.62;103322.88;5006334;28;45779;-71
2023/02/12 00:43:15;;;;;;;;;19.25;16.50;;;;;9.96;69.54;103321.84;5012809;28;45477;-71
2023/02/12 00:45:40;;;;;;;;;16.25;15.75;;;;;9.79;70.26;103302.97;5013988;28;45510;-71
2023/02/12 00:48:06;;;;;;;;;16.00;14.00;;;;;9.75;70.22;103309.13;5000041;28;47173;-71
2023/02/12 00:50:31;;;;;;;;;16.25;14.00;;;;;9.72;70.24;103304.66;5013711;28;45399;-71
2023/02/12 00:52:57;;;;;;;;;22.50;17.00;;;;;9.90;70.43;103319.97;5014533;28;45668;-71
2023/02/12 00:55:22;;;;;;;;;16.75;14.50;;;;;10.00;70.27;103335.22;5000825;28;45319;-71
2023/02/12 00:57:48;;;;;;;;;21.00;16.50;;;;;9.74;70.57;103286.91;5006986;28;45793;-71
2023/02/12 01:00:14;;;;;;;;;21.25;16.25;;;;;9.91;70.63;103315.56;5019564;28;45742;-71
2023/02/12 01:02:40;;;;;;;;;21.25;18.00;;;;;9.91;70.24;103312.91;5015883;28;45377;-71
2023/02/12 01:05:05;;;;;;;;;23.50;17.00;;;;;9.84;70.57;103298.59;5000498;28;45482;-71
2023/02/12 01:07:31;;;;;;;;;16.75;15.75;;;;;10.07;70.70;103336.19;5007286;28;46121;-71
2023/02/12 01:09:56;;;;;;;;;20.25;17.75;;;;;9.93;70.37;103304.00;5018632;28;45336;-71
2023/02/12 01:12:21;;;;;;;;;22.75;20.75;;;;;10.09;70.17;103331.78;5014033;28;45241;-71
2023/02/12 01:14:47;;;;;;;;;21.00;20.00;;;;;9.90;70.09;103311.97;5009421;28;45520;-71
2023/02/12 01:17:12;;;;;;;;;21.25;18.00;;;;;9.96;70.30;103312.06;5000739;28;45415;-71
2023/02/12 01:19:38;;;;;;;;;19.75;19.25;;;;;9.88;70.23;103303.06;4999961;28;45576;-71
2023/02/12 01:22:03;;;;;;;;;20.25;18.00;;;;;10.09;70.40;103337.13;5017731;28;45460;-71
2023/02/12 01:24:29;;;;;;;;;15.00;13.75;;;;;9.79;70.56;103285.19;5018624;28;45573;-71
2023/02/12 01:26:54;;;;;;;;;14.50;13.75;;;;;9.89;70.61;103299.53;5018707;28;47284;-71
2023/02/12 01:29:19;;;;;;;;;15.75;14.75;;;;;10.02;70.21;103316.56;5019720;28;45441;-71
2023/02/12 01:31:45;;;;;;;;;12.25;12.25;;;;;9.93;70.48;103301.34;5020081;28;45429;-71
2023/02/12 01:34:11;;;;;;;;;15.75;13.75;;;;;10.09;69.99;103325.53;5007287;28;45450;-71
2023/02/12 01:36:36;;;;;;;;;14.75;12.50;;;;;10.14;70.43;103339.81;5014236;28;46988;-71
2023/02/12 01:39:04;;;;;;;;;16.50;14.50;;;;;9.97;69.89;103303.19;5015324;28;45423;-71
2023/02/12 01:41:36;;;;;;;;;16.25;15.00;;;;;10.14;69.73;103340.72;5007099;28;45331;-71
2023/02/12 01:44:29;;;;;;;;;18.25;14.50;;;;;10.00;70.31;103310.31;5018533;28;46800;-71
2023/02/12 01:47:00;;;;;;;;;16.25;13.00;;;;;9.95;70.21;103306.69;5011212;28;45455;-71
2023/02/12 01:49:41;;;;;;;;;13.50;11.00;;;;;10.03;69.84;103305.00;5014106;28;45550;-71
2023/02/12 01:52:22;;;;;;;;;12.75;12.50;;;;;10.11;70.18;103321.13;5003473;28;45401;-71
2023/02/12 01:54:50;;;;;;;;;14.25;14.00;;;;;9.96;69.54;103296.03;4999865;28;45449;-71
2023/02/12 01:57:17;;;;;;;;;8.00;8.00;;;;;10.09;69.95;103318.44;4998407;28;46213;-70
2023/02/12 01:59:44;;;;;;;;;5.50;5.00;;;;;10.01;69.39;103291.66;5000131;28;45512;-71
2023/02/12 02:02:10;;;;;;;;;6.50;6.25;;;;;10.06;69.39;103285.47;5016038;28;45405;-71
2023/02/12 02:04:49;;;;;;;;;9.25;8.00;;;;;10.10;68.53;103296.19;5008738;28;45428;-71
2023/02/12 02:07:14;;;;;;;;;5.25;4.25;;;;;10.11;69.29;103291.75;5011547;28;48397;-71
2023/02/12 02:09:41;;;;;;;;;5.50;3.75;;;;;10.14;68.30;103289.09;5001647;28;45370;-72
2023/02/12 02:14:55;;;;;;;;;6.00;3.50;;;;;10.00;68.39;103270.28;4999726;28;45443;-71
2023/02/12 02:17:29;;;;;;;;;2.00;1.75;;;;;10.30;68.29;103320.41;4999676;28;46168;-71
2023/02/12 02:20:32;;;;;;;;;2.25;2.25;;;;;10.32;68.33;103321.38;5001044;28;45681;-71
2023/02/12 02:23:19;;;;;;;;;2.25;2.00;;;;;10.34;68.06;103316.94;5015243;28;45577;-71
2023/02/12 02:26:02;;;;;;;;;4.00;3.00;;;;;10.24;68.28;103309.69;5019330;28;45708;-71
2023/02/12 02:28:43;;;;;;;;;2.00;2.00;;;;;10.29;68.02;103315.97;5019325;28;45960;-71
2023/02/12 02:31:45;;;;;;;;;2.50;2.50;;;;;10.31;67.84;103307.97;5015649;28;45465;-71
2023/02/12 02:34:36;;;;;;;;;2.00;2.00;;;;;10.34;68.20;103306.25;5006626;28;45507;-71
2023/02/12 02:37:26;;;;;;;;;3.00;2.00;;;;;10.37;68.02;103308.03;4978633;28;45368;-71
2023/02/12 02:39:54;;;;;;;;;2.25;2.25;;;;;10.38;67.65;103313.41;4999507;28;46573;-71
2023/02/12 02:42:25;;;;;;;;;2.00;2.00;;;;;10.33;67.95;103296.44;4999119;28;45715;-71
2023/02/12 02:45:00;;;;;;;;;2.00;1.50;;;;;10.23;67.31;103278.53;4999558;28;45455;-71
2023/02/12 02:47:38;;;;;;;;;2.00;2.00;;;;;10.25;67.42;103287.44;4999375;28;45436;-71
2023/02/12 02:50:12;;;;;;;;;1.75;1.00;;;;;10.14;67.65;103262.41;5002083;28;46251;-70
2023/02/12 02:52:45;;;;;;;;;1.50;1.50;;;;;10.35;67.21;103294.69;5007555;28;45384;-71
2023/02/12 02:55:15;;;;;;;;;3.00;2.00;;;;;10.27;67.26;103271.44;4999190;28;45537;-71
2023/02/12 02:57:50;;;;;;;;;3.00;1.00;;;;;10.36;67.64;103304.50;4999001;28;45566;-71
2023/02/12 03:00:24;;;;;;;;;2.75;2.00;;;;;10.34;67.68;103294.66;4999016;28;45498;-71
2023/02/12 03:02:55;;;;;;;;;3.25;3.00;;;;;10.19;67.33;103269.59;4999083;28;45702;-71
2023/02/12 03:05:52;;;;;;;;;3.00;3.00;;;;;10.30;67.25;103276.81;5001647;28;45599;-71
2023/02/12 03:08:33;;;;;;;;;3.00;3.00;;;;;10.34;67.64;103275.97;4991879;28;45354;-71
2023/02/12 03:11:13;;;;;;;;;4.25;4.25;;;;;10.24;67.25;103274.06;5009286;28;45556;-71
2023/02/12 03:14:05;;;;;;;;;3.50;3.25;;;;;10.43;67.74;103291.22;4998800;28;45340;-71
2023/02/12 03:16:35;;;;;;;;;5.50;4.00;;;;;10.24;67.06;103258.97;4998988;28;45389;-71
2023/02/12 03:19:10;;;;;;;;;4.00;4.00;;;;;10.44;67.35;103277.88;4999183;28;45690;-71
2023/02/12 03:22:05;;;;;;;;;4.00;4.00;;;;;10.47;67.16;103295.69;5013905;28;46401;-71
2023/02/12 03:24:57;;;;;;;;;3.25;3.00;;;;;10.45;66.99;103289.44;4999973;28;45889;-71
2023/02/12 03:27:37;;;;;;;;;3.00;3.00;;;;;10.35;67.55;103265.31;5009413;28;45387;-71
2023/02/12 03:30:04;;;;;;;;;7.75;6.25;;;;;10.36;67.38;103267.13;5006283;28;45571;-71
2023/02/12 03:32:55;;;;;;;;;2.50;2.50;;;;;10.40;66.83;103273.38;5018514;28;46479;-71
2023/02/12 03:35:30;;;;;;;;;4.50;2.75;;;;;10.26;66.94;103246.53;4981757;28;45586;-71
2023/02/12 03:38:02;;;;;;;;;4.00;3.00;;;;;10.28;66.95;103244.75;5012591;28;45403;-71
2023/02/12 03:40:33;;;;;;;;;7.25;3.75;;;;;10.32;67.23;103240.38;5005350;28;45519;-71
2023/02/12 03:43:05;;;;;;;;;7.50;3.00;;;;;10.35;67.20;103248.41;5011638;28;45503;-71
2023/02/12 03:45:54;;;;;;;;;2.50;2.50;;;;;10.50;66.90;103274.34;5013791;28;45574;-71
2023/02/12 03:48:29;;;;;;;;;3.50;3.50;;;;;10.52;67.02;103276.16;5007300;28;45328;-70
2023/02/12 03:51:20;;;;;;;;;5.75;5.00;;;;;10.51;66.93;103265.47;5017970;28;45544;-71
2023/02/12 03:53:46;;;;;;;;;2.75;2.75;;;;;10.47;67.10;103260.97;5019988;28;48065;-71
2023/02/12 03:56:18;;;;;;;;;4.25;4.25;;;;;10.31;66.99;103238.56;5013642;28;45620;-71
2023/02/12 03:58:44;;;;;;;;;5.00;3.25;;;;;10.32;66.99;103245.72;5001784;28;45473;-72
2023/02/12 04:01:11;;;;;;;;;5.00;4.00;;;;;10.33;66.87;103243.06;5009266;28;45668;-71
2023/02/12 04:03:38;;;;;;;;;4.00;3.00;;;;;10.33;66.93;103248.41;5006772;28;48391;-71
2023/02/12 04:06:04;;;;;;;;;2.75;2.75;;;;;10.17;67.38;103219.72;5020576;28;45631;-71
2023/02/12 04:08:31;;;;;;;;;3.00;3.00;;;;;10.47;67.08;103271.66;5015964;28;45427;-70
2023/02/12 04:11:13;;;;;;;;;5.50;4.25;;;;;10.50;67.08;103269.91;5001810;28;45316;-71
2023/02/12 04:13:57;;;;;;;;;4.00;3.50;;;;;10.42;66.92;103263.59;5018524;28;46470;-71
2023/02/12 04:16:34;;;;;;;;;5.25;5.00;;;;;10.33;67.40;103253.72;5006907;28;45551;-71
2023/02/12 04:19:00;;;;;;;;;4.00;4.00;;;;;10.41;67.28;103260.91;5001830;28;45422;-71
2023/02/12 04:21:47;;;;;;;;;7.75;4.75;;;;;10.44;67.00;103275.22;5009941;28;45582;-71
2023/02/12 04:24:38;;;;;;;;;4.00;3.50;;;;;10.28;67.37;103239.41;5018052;28;47098;-71
2023/02/12 04:27:15;;;;;;;;;4.00;3.25;;;;;10.32;67.16;103251.97;5010794;28;45586;-71
2023/02/12 04:29:54;;;;;;;;;6.25;4.75;;;;;10.31;66.88;103249.25;5015388;28;45476;-71
2023/02/12 04:32:24;;;;;;;;;5.25;3.75;;;;;10.37;67.26;103260.91;5012563;28;45395;-71
2023/02/12 04:35:01;;;;;;;;;3.50;2.00;;;;;10.26;66.69;103251.88;5002504;28;45443;-71
2023/02/12 04:37:47;;;;;;;;;3.50;3.50;;;;;10.19;66.88;103258.91;5015135;28;45994;-70
2023/02/12 04:40:16;;;;;;;;;4.00;4.00;;;;;10.19;67.31;103255.38;5011643;28;45475;-71
2023/02/12 04:42:43;;;;;;;;;5.00;5.00;;;;;10.35;67.11;103286.66;5001063;28;45469;-71
2023/02/12 04:45:21;;;;;;;;;5.50;4.50;;;;;10.02;66.91;103223.16;5001090;28;45557;-71
2023/02/12 04:47:46;;;;;;;;;3.75;3.00;;;;;10.09;66.98;103238.38;5001146;28;45533;-71
2023/02/12 04:50:12;;;;;;;;;5.00;3.75;;;;;10.24;66.70;103258.06;5001273;28;45427;-71
2023/02/12 04:52:37;;;;;;;;;4.00;4.00;;;;;10.40;66.88;103280.50;5015926;28;46512;-71
2023/02/12 04:55:03;;;;;;;;;4.75;4.75;;;;;10.27;67.00;103252.75;5019255;28;46947;-71
2023/02/12 04:57:29;;;;;;;;;7.75;6.25;;;;;10.27;66.65;103247.41;5000403;28;45444;-71
2023/02/12 04:59:54;;;;;;;;;5.00;4.50;;;;;10.26;67.29;103254.53;5013256;28;45423;-71
2023/02/12 05:02:19;;;;;;;;;5.25;4.00;;;;;10.25;66.89;103247.41;5013508;28;45512;-71
2023/02/12 05:04:45;;;;;;;;;7.25;7.00;;;;;10.32;66.99;103276.00;5013041;28;46074;-70
2023/02/12 05:07:11;;;;;;;;;5.00;4.75;;;;;10.22;66.85;103259.81;5014719;28;45466;-70
2023/02/12 05:09:36;;;;;;;;;6.00;5.00;;;;;10.14;67.10;103252.66;5011950;28;45329;-70
2023/02/12 05:12:02;;;;;;;;;8.00;4.25;;;;;10.31;67.42;103274.16;5013113;28;46215;-71
2023/02/12 05:14:28;;;;;;;;;10.00;8.00;;;;;10.20;67.21;103266.03;5013084;28;45829;-70
2023/02/12 05:16:53;;;;;;;;;8.75;7.25;;;;;10.30;66.87;103272.34;5001492;28;45329;-71
2023/02/12 05:19:19;;;;;;;;;4.75;4.00;;;;;10.34;67.08;103279.56;5001523;28;45273;-71
2023/02/12 05:21:44;;;;;;;;;5.00;4.00;;;;;10.12;67.34;103243.75;5017252;28;46017;-71
2023/02/12 05:24:09;;;;;;;;;2.25;2.25;;;;;10.01;66.58;103229.38;5014739;28;47300;-71
2023/02/12 05:26:35;;;;;;;;;4.00;4.00;;;;;9.97;67.05;103228.47;5001122;28;45582;-70
2023/02/12 05:29:02;;;;;;;;;4.75;4.75;;;;;10.10;67.26;103247.25;5000722;28;45419;-70
2023/02/12 05:31:27;;;;;;;;;5.50;4.50;;;;;10.05;67.25;103235.66;5017502;28;45311;-70
2023/02/12 05:33:53;;;;;;;;;4.75;4.75;;;;;10.00;66.90;103233.81;5018782;28;46662;-71
2023/02/12 05:36:21;;;;;;;;;5.00;4.00;;;;;10.10;66.72;103257.94;5009182;28;45488;-71
2023/02/12 05:38:47;;;;;;;;;7.50;3.75;;;;;9.94;67.13;103231.09;5011401;28;45337;-70
2023/02/12 05:41:23;;;;;;;;;2.25;2.00;;;;;10.10;66.97;103260.59;5014497;28;45997;-70
2023/02/12 05:43:50;;;;;;;;;4.00;4.00;;;;;10.12;66.71;103270.44;4998751;28;47206;-70
2023/02/12 05:46:17;;;;;;;;;2.00;2.00;;;;;10.02;66.70;103253.44;5007619;28;45335;-70
2023/02/12 05:48:42;;;;;;;;;3.00;3.00;;;;;9.93;67.03;103229.31;5020239;28;45403;-70
2023/02/12 05:51:10;;;;;;;;;3.25;2.50;;;;;10.00;67.28;103240.94;5010272;28;45407;-71
2023/02/12 05:53:38;;;;;;;;;3.00;3.00;;;;;9.99;66.91;103231.16;5005066;28;46513;-71
2023/02/12 05:56:22;;;;;;;;;5.00;3.00;;;;;10.01;66.87;103240.94;5003857;28;45546;-70
2023/02/12 05:58:52;;;;;;;;;2.75;2.50;;;;;9.97;66.90;103240.91;5011921;28;45479;-70
2023/02/12 06:01:20;;;;;;;;;2.50;2.50;;;;;9.92;66.54;103230.19;5015165;28;45468;-71
2023/02/12 06:03:46;;;;;;;;;4.25;3.75;;;;;9.95;66.78;103238.22;4999655;28;46555;-71
2023/02/12 06:06:12;;;;;;;;;5.00;5.00;;;;;9.96;66.46;103236.47;4999178;28;45407;-70
2023/02/12 06:08:38;;;;;;;;;8.00;6.00;;;;;10.04;66.33;103258.78;5005755;28;45383;-70
2023/02/12 06:11:06;;;;;;;;;6.00;4.75;;;;;9.90;67.49;103231.06;5018191;28;45764;-71
2023/02/12 06:13:32;;;;;;;;;7.00;5.00;;;;;10.00;67.05;103252.50;5014687;28;46243;-70
2023/02/12 06:15:58;;;;;;;;;3.25;3.25;;;;;9.91;67.21;103228.41;5009772;28;46201;-70
2023/02/12 06:18:24;;;;;;;;;6.50;4.50;;;;;9.91;67.00;103223.06;5005028;28;45416;-70
2023/02/12 06:20:49;;;;;;;;;3.00;3.00;;;;;9.95;66.87;103227.53;5017621;28;45585;-71
2023/02/12 06:23:15;;;;;;;;;7.00;7.00;;;;;9.96;66.82;103224.00;5017915;28;46367;-70
2023/02/12 06:25:40;;;;;;;;;5.75;5.00;;;;;10.06;66.81;103238.34;5008220;28;45352;-70
2023/02/12 06:28:05;;;;;;;;;4.25;4.25;;;;;10.05;66.69;103235.66;4999570;28;45420;-70
2023/02/12 06:30:33;;;;;;;;;10.25;8.50;;;;;10.14;66.73;103252.66;4999978;28;45531;-70
2023/02/12 06:32:58;;;;;;;;;7.50;7.50;;;;;10.10;66.58;103248.16;5012536;28;46486;-70
2023/02/12 06:35:24;;;;;;;;;7.25;4.50;;;;;10.01;67.02;103240.06;4998091;28;45549;-70
2023/02/12 06:37:49;;;;;;;;;7.25;6.00;;;;;9.97;66.59;103236.47;5014777;28;45337;-71
2023/02/12 06:40:15;;;;;;;;;8.75;8.25;;;;;9.92;66.94;103230.19;5008961;28;45607;-71
2023/02/12 06:42:40;;;;;;;;;5.00;5.00;;;;;10.11;66.97;103260.63;4998988;28;45460;-71
2023/02/12 06:45:06;;;;;;;;;8.00;8.00;;;;;9.99;66.99;103233.81;4999466;28;45360;-71
2023/02/12 06:47:31;;;;;;;;;6.00;6.00;;;;;9.95;66.53;103232.88;4999411;28;45336;-70
2023/02/12 06:49:57;;;;;;;;;8.00;7.00;;;;;10.15;66.88;103266.88;5007736;28;45659;-70
2023/02/12 06:52:22;;;;;;;;;7.00;7.00;;;;;9.98;66.70;103235.56;5013606;28;45554;-71
2023/02/12 06:54:48;;;;;;;;;4.00;4.00;;;;;9.89;66.39;103223.91;5007873;28;45305;-70
2023/02/12 06:57:13;;;;;;;;;6.50;5.00;;;;;9.89;67.17;103232.84;4999118;28;45324;-71
2023/02/12 06:59:38;;;;;;;;;4.00;4.00;;;;;9.99;67.14;103250.72;4999312;28;45493;-70
2023/02/12 07:02:04;;;;;;;;;4.25;3.50;;;;;10.00;66.58;103268.50;5014260;28;47499;-71
2023/02/12 07:04:29;;;;;;;;;3.75;3.00;;;;;9.96;66.61;103264.03;5017543;28;45523;-70
2023/02/12 07:06:55;;;;;;;;;9.00;7.00;;;;;10.06;66.41;103275.69;5018704;28;45376;-70
2023/02/12 07:09:20;;;;;;;;;4.75;3.75;;;;;9.95;66.68;103259.56;5017212;28;45518;-70
2023/02/12 07:11:45;;;;;;;;;6.25;4.75;;;;;9.89;66.83;103247.91;5003951;28;47243;-70
2023/02/12 07:14:14;;;;;;;;;7.25;4.75;;;;;10.08;66.72;103278.38;5008998;28;45590;-70
2023/02/12 07:16:40;;;;;;;;;4.00;4.00;;;;;9.90;66.56;103255.94;4999018;28;45522;-70
2023/02/12 07:19:05;;;;;;;;;4.75;3.75;;;;;9.93;67.28;103280.00;5000819;28;45389;-70
2023/02/12 07:21:31;;;;;;;;;5.00;4.00;;;;;9.91;66.78;103272.88;5007634;28;45382;-71
2023/02/12 07:23:56;;;;;;;;;4.75;3.75;;;;;9.81;67.26;103262.09;5022188;28;45339;-71
2023/02/12 07:26:22;;;;;;;;;4.50;4.00;;;;;9.78;66.79;103267.38;5005053;28;45401;-71
2023/02/12 07:28:49;;;;;;;;;5.00;5.00;;;;;9.81;67.11;103263.88;5002474;28;45495;-71
2023/02/12 07:31:20;;;;;;;;;9.00;6.50;;;;;9.83;67.23;103275.44;5004617;28;46300;-70
2023/02/12 07:33:46;;;;;;;;;7.00;7.00;;;;;9.98;66.82;103298.72;5012888;28;45254;-70
2023/02/12 07:36:16;;;;;;;;;4.00;4.00;;;;;9.82;67.38;103268.31;5004952;28;45301;-70
2023/02/12 07:38:42;;;;;;;;;5.50;5.00;;;;;9.67;67.18;103254.81;5011801;28;45425;-70
2023/02/12 07:41:10;;;;;;;;;3.75;3.75;;;;;10.00;67.27;103305.84;5001966;28;46670;-70
2023/02/12 07:43:36;;;;;;;;;5.00;5.00;;;;;10.04;67.05;103303.22;5011378;28;45357;-70
2023/02/12 07:46:15;;;;;;;;;5.00;3.25;;;;;9.83;67.32;103260.31;5010420;28;45292;-70
2023/02/12 07:48:42;;;;;;;;;7.50;7.25;;;;;9.94;67.19;103281.78;5020668;28;45785;-70
2023/02/12 07:51:10;;;;;;;;;5.00;4.00;;;;;9.90;67.26;103274.63;5004599;28;45554;-71
2023/02/12 07:53:36;;;;;;;;;4.75;4.75;;;;;10.00;66.90;103279.16;5015000;28;45592;-71
2023/02/12 07:56:20;;;;;;;;;4.00;4.00;;;;;9.97;66.71;103271.16;5000886;28;45559;-70
2023/02/12 08:10:58;;;;;;;;;;;;;;;;;;;;;
2023/02/12 08:13:12;;;;;;;;;10.50;7.75;;;;;10.12;66.97;103289.13;4881438;29;45558;-73
2023/02/12 08:15:38;;;;;;;;;7.75;7.50;;;;;9.71;66.92;103229.97;4898024;29;46676;-71
2023/02/12 08:18:03;;;;;;;;;6.00;5.50;;;;;9.97;66.91;103281.84;4980104;28;45476;-71
2023/02/12 08:20:28;;;;;;;;;10.00;9.75;;;;;9.90;67.00;103271.06;5006325;28;45608;-71
2023/02/12 08:22:54;;;;;;;;;12.50;11.00;;;;;9.87;67.21;103273.69;5012834;28;45453;-71
2023/02/12 08:25:19;;;;;;;;;13.25;10.25;;;;;9.83;67.31;103264.78;5014222;28;45548;-71
2023/02/12 08:27:45;;;;;;;;;10.50;9.00;;;;;9.78;67.30;103263.81;5000002;28;45338;-71
2023/02/12 08:30:10;;;;;;;;;11.00;9.25;;;;;9.77;67.64;103262.94;5006628;28;45612;-71
2023/02/12 08:32:36;;;;;;;;;6.50;4.50;;;;;9.93;67.12;103289.78;5019840;28;45364;-71
2023/02/12 08:35:01;;;;;;;;;11.00;9.75;;;;;9.94;67.50;103303.16;5016847;28;47158;-72
2023/02/12 08:37:26;;;;;;;;;12.75;10.25;;;;;9.68;67.97;103257.50;5016645;28;45315;-71
2023/02/12 08:39:52;;;;;;;;;7.25;6.50;;;;;9.96;67.65;103314.72;5015342;28;45511;-73
2023/02/12 08:42:17;;;;;;;;;11.25;7.75;;;;;9.72;67.72;103272.66;5021161;28;45645;-71
2023/02/12 08:44:43;;;;;;;;;7.25;7.25;;;;;9.75;67.44;103271.78;5005641;28;46672;-71
2023/02/12 08:47:08;;;;;;;;;9.50;5.50;;;;;9.86;67.17;103285.28;5019369;28;45343;-71
2023/02/12 08:49:34;;;;;;;;;7.50;4.75;;;;;9.89;67.28;103301.28;5003376;28;45681;-71
2023/02/12 08:52:01;;;;;;;;;9.75;8.25;;;;;9.82;67.58;103290.56;5010727;28;45561;-70
2023/02/12 08:54:28;;;;;;;;;7.25;5.00;;;;;9.99;66.94;103322.75;5011576;28;46163;-71
2023/02/12 08:56:57;;;;;;;;;7.25;5.00;;;;;9.75;67.03;103278.00;5015481;28;45581;-71
2023/02/12 08:59:23;;;;;;;;;7.00;5.00;;;;;9.70;67.30;103281.50;5007213;28;45408;-71
2023/02/12 09:01:50;;;;;;;;;7.50;7.25;;;;;9.79;67.16;103289.63;5005732;28;45269;-71
2023/02/12 09:04:22;;;;;;;;;5.50;5.00;;;;;9.83;67.08;103294.13;5017399;28;47485;-71
2023/02/12 09:06:49;;;;;;;;;7.75;6.50;;;;;9.97;67.62;103324.53;5010650;28;45522;-71
2023/02/12 09:09:15;;;;;;;;;4.50;4.00;;;;;9.87;66.92;103300.38;5017429;28;45474;-71
2023/02/12 09:11:41;;;;;;;;;4.75;3.75;;;;;9.74;67.33;103280.66;5015769;28;46826;-71
2023/02/12 09:14:10;;;;;;;;;6.50;4.75;;;;;9.91;67.56;103305.78;5012839;28;47548;-71
2023/02/12 09:16:38;;;;;;;;;6.25;2.75;;;;;10.01;67.17;103310.31;5007201;28;45597;-71
2023/02/12 09:19:03;;;;;;;;;3.00;3.00;;;;;9.80;67.28;103275.41;5004957;28;45640;-71
2023/02/12 09:21:29;;;;;;;;;3.00;3.00;;;;;9.96;67.45;103297.81;5007081;28;45684;-71
2023/02/12 09:23:54;;;;;;;;;2.50;2.50;;;;;9.88;67.32;103284.38;5000172;28;45494;-71
2023/02/12 09:26:24;;;;;;;;;3.00;2.25;;;;;9.93;67.45;103288.00;5005766;28;45417;-70
2023/02/12 09:28:50;;;;;;;;;2.25;2.25;;;;;9.93;66.80;103279.13;5013040;28;45416;-71
2023/02/12 09:31:19;;;;;;;;;2.00;2.00;;;;;10.00;66.56;103292.50;5005082;28;45753;-71
2023/02/12 09:33:45;;;;;;;;;3.50;2.50;;;;;10.10;66.54;103306.84;5001659;28;47489;-71
2023/02/12 09:36:14;;;;;;;;;2.00;2.00;;;;;9.95;67.13;103286.25;5012042;28;45531;-71
2023/02/12 09:38:40;;;;;;;;;2.00;2.00;;;;;9.94;66.40;103288.88;5018750;28;45300;-71
2023/02/12 09:41:46;;;;;;;;;4.00;4.00;;;;;9.87;66.89;103282.59;5013632;28;45459;-71
2023/02/12 09:44:28;;;;;;;;;2.25;2.25;;;;;10.01;66.55;103299.66;4999958;28;45658;-71
2023/02/12 09:47:01;;;;;;;;;0.25;0.25;;;;;9.83;67.11;103265.66;5000781;28;45345;-71
2023/02/12 09:50:18;;;;;;;;;2.25;2.25;;;;;10.08;66.89;103295.28;5012445;28;45458;-71
2023/02/12 09:52:44;;;;;;;;;2.00;2.00;;;;;10.02;66.33;103292.53;4975090;28;45330;-71
2023/02/12 09:55:14;;;;;;;;;4.50;3.75;;;;;9.76;66.71;103241.59;5018285;28;48264;-71
2023/02/12 09:57:41;;;;;;;;;5.00;3.00;;;;;9.90;67.04;103273.72;5002049;28;46196;-72
2023/02/12 10:00:29;;;;;;;;;3.50;2.75;;;;;9.80;67.09;103252.28;5007903;28;45702;-73
2023/02/12 10:02:55;;;;;;;;;3.00;2.00;;;;;9.93;67.17;103276.44;4999235;28;45585;-71
2023/02/12 10:05:27;;;;;;;;;3.50;3.50;;;;;9.96;67.40;103280.03;5000211;28;46584;-71
2023/02/12 10:08:24;;;;;;;;;2.25;2.25;;;;;10.08;67.08;103289.94;5014332;28;45687;-71
2023/02/12 10:11:09;;;;;;;;;3.75;3.75;;;;;9.90;67.12;103253.28;5001419;28;45479;-71
2023/02/12 10:14:00;;;;;;;;;3.75;3.75;;;;;9.96;66.98;103271.16;5017491;28;45518;-71
2023/02/12 10:16:32;;;;;;;;;4.00;2.75;;;;;10.02;66.85;103273.84;5013714;28;46389;-71
2023/02/12 10:19:30;;;;;;;;;3.25;3.25;;;;;10.12;67.01;103281.09;5006586;28;45306;-71
2023/02/12 10:22:00;;;;;;;;;5.50;4.75;;;;;10.08;67.04;103273.03;5004576;28;45443;-73
2023/02/12 10:24:49;;;;;;;;;8.00;5.00;;;;;10.17;67.15;103294.47;5012350;28;45662;-73
2023/02/12 10:27:19;;;;;;;;;4.75;4.75;;;;;10.02;66.83;103261.44;5009516;28;47073;-73
2023/02/12 10:29:47;;;;;;;;;5.50;4.25;;;;;9.87;67.09;103233.69;5005540;28;45450;-73
2023/02/12 10:32:19;;;;;;;;;7.75;5.00;;;;;10.13;67.06;103282.00;5013945;28;45421;-73
2023/02/12 10:34:48;;;;;;;;;4.00;4.00;;;;;10.05;67.10;103257.88;5008238;28;45345;-73
2023/02/12 10:37:21;;;;;;;;;4.50;3.75;;;;;10.06;66.78;103254.34;5012194;28;46489;-73
2023/02/12 10:39:53;;;;;;;;;9.50;6.75;;;;;10.18;66.95;103285.59;5006915;28;45647;-72
2023/02/12 10:42:33;;;;;;;;;4.75;4.75;;;;;10.14;66.75;103274.00;5011645;28;45443;-72
2023/02/12 10:44:58;;;;;;;;;7.00;7.00;;;;;10.09;66.88;103259.72;5007226;28;45402;-71
2023/02/12 10:47:25;;;;;;;;;4.50;4.50;;;;;10.05;66.33;103254.31;4988104;28;46639;-72
2023/02/12 10:50:15;;;;;;;;;3.25;3.25;;;;;10.17;66.58;103281.13;4998200;28;45391;-72
2023/02/12 10:52:46;;;;;;;;;2.75;2.75;;;;;10.18;66.16;103281.16;5007150;28;45582;-70
2023/02/12 10:55:25;;;;;;;;;3.50;3.50;;;;;10.24;66.52;103285.66;5009796;28;45471;-70
2023/02/12 10:57:51;;;;;;;;;5.00;3.50;;;;;10.24;65.97;103280.31;5006640;28;46297;-73
2023/02/12 11:00:25;;;;;;;;;4.75;4.75;;;;;10.26;66.59;103286.56;5014058;28;45735;-72
2023/02/12 11:03:09;;;;;;;;;4.50;4.00;;;;;10.28;66.12;103275.91;5011491;28;45545;-74
2023/02/12 11:06:11;;;;;;;;;3.50;3.50;;;;;10.12;66.29;103243.75;4999753;28;45581;-67
2023/02/12 11:08:37;;;;;;;;;1.75;1.75;;;;;10.14;66.47;103247.31;4997562;28;48070;-72
2023/02/12 11:11:26;;;;;;;;;3.75;3.75;;;;;10.01;65.95;103224.94;5012293;28;45631;-73
2023/02/12 11:14:05;;;;;;;;;3.00;3.00;;;;;10.41;66.57;103272.50;4999091;28;45341;-73
2023/02/12 11:16:31;;;;;;;;;5.00;4.25;;;;;10.43;65.74;103277.84;5010562;28;45561;-73
2023/02/12 11:18:59;;;;;;;;;2.50;1.00;;;;;10.38;66.21;103260.00;5009946;28;46646;-73
2023/02/12 11:21:24;;;;;;;;;3.25;3.25;;;;;10.27;65.82;103244.75;5014855;28;45372;-73
2023/02/12 11:23:50;;;;;;;;;2.75;2.75;;;;;10.37;65.63;103260.91;4999934;28;45518;-73
2023/02/12 11:26:18;;;;;;;;;4.00;4.00;;;;;10.50;66.05;103264.56;5016952;28;45320;-73
2023/02/12 11:29:48;;;;;;;;;3.50;3.00;;;;;10.50;65.74;103261.00;5009118;28;47144;-73
2023/02/12 11:32:51;;;;;;;;;;;;;;;;;;;;;
2023/02/12 11:36:29;;;;;;;;;;;;;;;;;;;;;
2023/02/12 11:39:07;;;;;;;;;3.00;3.00;;;;;10.44;65.53;103210.19;4996729;28;72357;-69
2023/02/12 12:00:13;;;;;;;;;;;;;;;;;;;;;
2023/02/12 12:20:16;;;;;;;;;8.25;8.00;;;;;10.77;65.18;103208.66;4817652;29;45945;-72
2023/02/12 12:23:10;;;;;;;;;8.75;8.75;;;;;10.84;65.16;103207.81;4909393;28;47130;-72
2023/02/12 12:25:45;;;;;;;;;10.00;8.75;;;;;10.88;64.87;103209.63;4966067;28;46019;-72
2023/02/12 12:28:27;;;;;;;;;7.50;5.50;;;;;10.87;64.88;103198.03;4979176;28;46431;-72
2023/02/12 12:31:05;;;;;;;;;10.00;7.75;;;;;10.59;65.02;103162.22;4971669;28;45520;-70
2023/02/12 12:33:59;;;;;;;;;13.25;9.50;;;;;10.87;64.96;103192.69;4973812;28;47958;-70
2023/02/12 12:36:57;;;;;;;;;7.75;7.25;;;;;10.80;64.94;103169.50;4969336;28;45928;-70
2023/02/12 12:39:42;;;;;;;;;5.00;4.25;;;;;10.91;64.55;103188.28;4975941;28;45436;-70
2023/02/12 12:42:25;;;;;;;;;9.50;9.50;;;;;10.63;64.66;103141.81;4974606;28;45365;-70